メインページ
METAR-TAF:

METAR-TAF

空港 :

ヴァーツラフ・ハヴェル・プラハ国際空港

プラハ, チェコ共和国

緯度: 50-06N, 経度: 014-15E, 海抜: 365m

現時点の気象観測

当レポートは27分前の17:00(UTC)に作成
南/南西の風 6kt、東/南東から南西の間で変化する
気温 2°C
湿度 87%
気圧 1023 hPa
視程10km以上
高度4500ftの千切れ雲あり

METAR: LKPR 171700Z 21006KT 110V230 9999 BKN045 02/00 Q1023 NOSIG

時間: 18:27 (17:27 UTC)

予報

当レポートは6時間27分前の11:00(UTC)に作成
予報は17日の 12時(UTC)から 18日の 18時(UTC)まで有効
西/南西の風 6kt
視程10km以上
高度3000ftの千切れ雲あり
17日の 18時(UTC)から 18日の 08時(UTC)まで一時的に
視程: 5000m
高度900ftの千切れ雲あり
18日の 15時(UTC)から 18日の 18時(UTC)まで徐々に
変向風 2kt
視程: 5000m

TAF: LKPR 171100Z 1712/1818 25006KT 9999 BKN030 TEMPO 1718/1808 5000 BR BKN009 BECMG 1815/1818 VRB02KT 5000 BR

4,000以上の空港の気象観測と天気予報(METAR報とTAF報)

利用可能な観測所は地図上に黄色い丸と赤い丸で示す。

丸の上にカーソルを重ねると観測所名を参照できる。

次にクリックすると気象観測と天気予報を参照できる。

マップの切り替え:黒色「×」印の緑ボタンをクリックして拡大、「-」印の緑ボタンをクリックして縮小、緑色の三角印をクリックして隣りの地図に切り替え


METAR-TAF: